Pagrindinis puslapis
METAR-TAF:

METAR-TAF

Oro uostai :

Vadsė, Norvegija

platuma: 70-04N, ilguma: 029-51E, Aukštis: 3 m

Dabartinis oras

Ataskaita buvo paskelbta 43 minutes, ne 01:20 UTC
Vėjas 13 kt iš Rytų/Pietryčių
Temperatūra -5°C
Drėgmė 73%
Slėgis 1024 hPa
Matomumas 10 km arba daugiau
sniegas,

METAR: ENVD 200120Z AUTO 11013KT 9999 -SN SCT017/// SCT023/// OVC030/// M05/M09 Q1024

Laikas: 04:03 (02:03 UTC)

Prognozė

Ataskaita buvo paskelbta 12 valandos ir 3 minutes, ne 14:00 UTC
Prognozė galioja nuo 19 metu 15 UTC su 19 metu 23 UTC
Vėjas 15 kt iš Rytų/Pietryčių
Matomumas 10 km arba daugiau
nėra debesų žemiau 1500 m ir nėra kamuolinių lietaus debesų
Tikimybė 40% :
Laikinai
nuo 19 metu 16 UTC su 19 metu 21 UTC
Vėjas 15 kt iš Pietų/Pietryčių su gūsio iki 25 kt

TAF: ENVD 191400Z 1915/1923 12015KT CAVOK PROB40 TEMPO 1916/1921 15015G25KT

Orai ataskaitas ir orų prognozės (METAR, TAF).

turimą stotys yra geltonos ir raudonos taškus žemėlapyje.

Perkelti pele per norėdami pamatyti stoties vardą.

Tada spustelėkite, norėdami matyti oro stebėjimo ir prognozės.

Norėdami pakeisti žemėlapį: spustelėkite ant žalios mygtukų su juodo kryžiaus žemyn,; žalią mygtuką su brūkšneliu, jei norite nutolinti; arba žalių rodyklių gretimoms žemėlapius.


METAR-TAF: